sensor_id;sensor_type;location;lat;lon;timestamp;P1;durP1;ratioP1;P2;durP2;ratioP2
80201;SDS011;69521;54.454;9.928;2024-03-02T00:00:14;32.75;;;15.63;;
80201;SDS011;69521;54.454;9.928;2024-03-02T00:02:46;29.25;;;14.95;;
80201;SDS011;69521;54.454;9.928;2024-03-02T00:05:13;32.97;;;14.07;;
80201;SDS011;69521;54.454;9.928;2024-03-02T00:07:43;36.78;;;16.65;;
80201;SDS011;69521;54.454;9.928;2024-03-02T00:10:10;31.52;;;13.77;;
80201;SDS011;69521;54.454;9.928;2024-03-02T00:12:39;33.53;;;15.52;;
80201;SDS011;69521;54.454;9.928;2024-03-02T00:17:55;32.90;;;15.73;;
80201;SDS011;69521;54.454;9.928;2024-03-02T00:20:24;33.80;;;14.32;;
80201;SDS011;69521;54.454;9.928;2024-03-02T00:22:52;35.50;;;16.05;;
80201;SDS011;69521;54.454;9.928;2024-03-02T00:25:24;27.55;;;14.02;;
80201;SDS011;69521;54.454;9.928;2024-03-02T00:27:50;37.53;;;16.67;;
80201;SDS011;69521;54.454;9.928;2024-03-02T00:30:37;32.67;;;14.00;;
80201;SDS011;69521;54.454;9.928;2024-03-02T00:33:23;34.65;;;15.40;;
80201;SDS011;69521;54.454;9.928;2024-03-02T00:35:50;40.55;;;15.23;;
80201;SDS011;69521;54.454;9.928;2024-03-02T00:38:16;34.55;;;14.50;;
80201;SDS011;69521;54.454;9.928;2024-03-02T00:40:42;32.47;;;14.55;;
80201;SDS011;69521;54.454;9.928;2024-03-02T00:43:35;34.63;;;15.13;;
80201;SDS011;69521;54.454;9.928;2024-03-02T00:45:58;35.17;;;13.80;;
80201;SDS011;69521;54.454;9.928;2024-03-02T00:48:24;36.97;;;14.43;;
80201;SDS011;69521;54.454;9.928;2024-03-02T00:50:52;36.35;;;15.18;;
80201;SDS011;69521;54.454;9.928;2024-03-02T00:53:17;32.03;;;14.82;;
80201;SDS011;69521;54.454;9.928;2024-03-02T00:55:48;33.13;;;14.43;;
80201;SDS011;69521;54.454;9.928;2024-03-02T00:58:14;33.63;;;14.95;;
80201;SDS011;69521;54.454;9.928;2024-03-02T01:00:39;28.50;;;15.00;;
80201;SDS011;69521;54.454;9.928;2024-03-02T01:03:04;35.20;;;14.83;;
80201;SDS011;69521;54.454;9.928;2024-03-02T01:05:30;32.42;;;14.15;;
80201;SDS011;69521;54.454;9.928;2024-03-02T01:07:55;35.85;;;15.27;;
80201;SDS011;69521;54.454;9.928;2024-03-02T01:10:21;32.53;;;14.75;;
80201;SDS011;69521;54.454;9.928;2024-03-02T01:12:46;37.22;;;16.00;;
80201;SDS011;69521;54.454;9.928;2024-03-02T01:15:11;32.05;;;14.63;;
80201;SDS011;69521;54.454;9.928;2024-03-02T01:17:37;36.58;;;16.27;;
80201;SDS011;69521;54.454;9.928;2024-03-02T01:20:02;35.75;;;16.58;;
80201;SDS011;69521;54.454;9.928;2024-03-02T01:22:29;34.95;;;14.93;;
80201;SDS011;69521;54.454;9.928;2024-03-02T01:24:54;38.58;;;15.68;;
80201;SDS011;69521;54.454;9.928;2024-03-02T01:27:20;35.33;;;13.55;;
80201;SDS011;69521;54.454;9.928;2024-03-02T01:29:45;31.35;;;15.18;;
80201;SDS011;69521;54.454;9.928;2024-03-02T01:32:10;32.60;;;14.87;;
80201;SDS011;69521;54.454;9.928;2024-03-02T01:34:36;33.55;;;15.05;;
80201;SDS011;69521;54.454;9.928;2024-03-02T01:37:01;34.60;;;15.13;;
80201;SDS011;69521;54.454;9.928;2024-03-02T01:39:27;37.60;;;16.60;;
80201;SDS011;69521;54.454;9.928;2024-03-02T01:41:52;33.60;;;14.63;;
80201;SDS011;69521;54.454;9.928;2024-03-02T01:44:17;37.57;;;16.10;;
80201;SDS011;69521;54.454;9.928;2024-03-02T01:46:43;39.30;;;16.20;;
80201;SDS011;69521;54.454;9.928;2024-03-02T01:49:08;36.17;;;16.07;;
80201;SDS011;69521;54.454;9.928;2024-03-02T01:51:33;35.10;;;14.55;;
80201;SDS011;69521;54.454;9.928;2024-03-02T01:53:59;38.47;;;16.23;;
80201;SDS011;69521;54.454;9.928;2024-03-02T01:56:24;40.53;;;17.48;;
80201;SDS011;69521;54.454;9.928;2024-03-02T01:58:49;38.67;;;17.33;;
80201;SDS011;69521;54.454;9.928;2024-03-02T02:01:15;42.83;;;16.88;;
80201;SDS011;69521;54.454;9.928;2024-03-02T02:03:41;43.40;;;17.02;;
80201;SDS011;69521;54.454;9.928;2024-03-02T02:06:07;42.05;;;17.80;;
80201;SDS011;69521;54.454;9.928;2024-03-02T02:08:33;36.25;;;16.23;;
80201;SDS011;69521;54.454;9.928;2024-03-02T02:10:58;41.25;;;16.98;;
80201;SDS011;69521;54.454;9.928;2024-03-02T02:13:23;42.35;;;17.55;;
80201;SDS011;69521;54.454;9.928;2024-03-02T02:15:49;43.65;;;17.73;;
80201;SDS011;69521;54.454;9.928;2024-03-02T02:18:15;39.45;;;18.15;;
80201;SDS011;69521;54.454;9.928;2024-03-02T02:20:40;40.30;;;17.37;;
80201;SDS011;69521;54.454;9.928;2024-03-02T02:23:06;45.05;;;18.98;;
80201;SDS011;69521;54.454;9.928;2024-03-02T02:25:33;44.33;;;18.83;;
80201;SDS011;69521;54.454;9.928;2024-03-02T02:27:58;44.53;;;17.83;;
80201;SDS011;69521;54.454;9.928;2024-03-02T02:30:24;46.08;;;19.33;;
80201;SDS011;69521;54.454;9.928;2024-03-02T02:32:54;39.78;;;18.15;;
80201;SDS011;69521;54.454;9.928;2024-03-02T02:35:19;36.43;;;16.10;;
80201;SDS011;69521;54.454;9.928;2024-03-02T02:37:47;40.55;;;17.63;;
80201;SDS011;69521;54.454;9.928;2024-03-02T02:40:14;48.90;;;18.42;;
80201;SDS011;69521;54.454;9.928;2024-03-02T02:42:40;45.45;;;18.80;;
80201;SDS011;69521;54.454;9.928;2024-03-02T02:45:05;45.28;;;19.77;;
80201;SDS011;69521;54.454;9.928;2024-03-02T02:47:31;53.40;;;19.83;;
80201;SDS011;69521;54.454;9.928;2024-03-02T02:50:00;46.67;;;18.60;;
80201;SDS011;69521;54.454;9.928;2024-03-02T02:52:26;46.85;;;19.13;;
80201;SDS011;69521;54.454;9.928;2024-03-02T02:54:58;56.13;;;20.00;;
80201;SDS011;69521;54.454;9.928;2024-03-02T02:57:23;52.50;;;20.17;;
80201;SDS011;69521;54.454;9.928;2024-03-02T02:59:48;53.03;;;21.87;;
80201;SDS011;69521;54.454;9.928;2024-03-02T03:02:13;57.33;;;20.33;;
80201;SDS011;69521;54.454;9.928;2024-03-02T03:04:39;55.35;;;22.17;;
80201;SDS011;69521;54.454;9.928;2024-03-02T03:07:05;55.22;;;20.45;;
80201;SDS011;69521;54.454;9.928;2024-03-02T03:09:30;55.37;;;21.33;;
80201;SDS011;69521;54.454;9.928;2024-03-02T03:11:56;60.97;;;23.33;;
80201;SDS011;69521;54.454;9.928;2024-03-02T03:14:21;59.10;;;21.13;;
80201;SDS011;69521;54.454;9.928;2024-03-02T03:16:46;57.47;;;21.30;;
80201;SDS011;69521;54.454;9.928;2024-03-02T03:19:13;59.10;;;21.60;;
80201;SDS011;69521;54.454;9.928;2024-03-02T03:21:38;51.87;;;20.20;;
80201;SDS011;69521;54.454;9.928;2024-03-02T03:24:04;46.03;;;19.93;;
80201;SDS011;69521;54.454;9.928;2024-03-02T03:26:29;46.80;;;18.83;;
80201;SDS011;69521;54.454;9.928;2024-03-02T03:28:55;49.83;;;19.33;;
80201;SDS011;69521;54.454;9.928;2024-03-02T03:31:20;46.97;;;20.07;;
80201;SDS011;69521;54.454;9.928;2024-03-02T03:33:45;49.80;;;19.27;;
80201;SDS011;69521;54.454;9.928;2024-03-02T03:36:10;48.80;;;19.00;;
80201;SDS011;69521;54.454;9.928;2024-03-02T03:38:36;49.70;;;19.27;;
80201;SDS011;69521;54.454;9.928;2024-03-02T03:41:01;45.78;;;18.30;;
80201;SDS011;69521;54.454;9.928;2024-03-02T03:43:26;41.55;;;17.83;;
80201;SDS011;69521;54.454;9.928;2024-03-02T03:45:52;42.20;;;17.13;;
80201;SDS011;69521;54.454;9.928;2024-03-02T03:48:17;39.33;;;17.93;;
80201;SDS011;69521;54.454;9.928;2024-03-02T03:50:43;46.72;;;18.55;;
80201;SDS011;69521;54.454;9.928;2024-03-02T03:53:09;48.13;;;17.77;;
80201;SDS011;69521;54.454;9.928;2024-03-02T03:55:34;44.85;;;18.58;;
80201;SDS011;69521;54.454;9.928;2024-03-02T03:58:00;45.38;;;19.10;;
80201;SDS011;69521;54.454;9.928;2024-03-02T04:00:25;49.97;;;18.58;;
80201;SDS011;69521;54.454;9.928;2024-03-02T04:02:51;43.55;;;18.05;;
80201;SDS011;69521;54.454;9.928;2024-03-02T04:05:16;42.55;;;18.73;;
80201;SDS011;69521;54.454;9.928;2024-03-02T04:07:41;47.07;;;18.37;;
80201;SDS011;69521;54.454;9.928;2024-03-02T04:10:08;43.33;;;18.27;;
80201;SDS011;69521;54.454;9.928;2024-03-02T04:12:35;46.97;;;18.88;;
80201;SDS011;69521;54.454;9.928;2024-03-02T04:15:02;51.95;;;19.40;;
80201;SDS011;69521;54.454;9.928;2024-03-02T04:17:31;45.75;;;18.58;;
80201;SDS011;69521;54.454;9.928;2024-03-02T04:19:58;44.40;;;18.13;;
80201;SDS011;69521;54.454;9.928;2024-03-02T04:22:24;43.45;;;17.65;;
80201;SDS011;69521;54.454;9.928;2024-03-02T04:24:49;51.37;;;19.87;;
80201;SDS011;69521;54.454;9.928;2024-03-02T04:27:14;47.08;;;18.35;;
80201;SDS011;69521;54.454;9.928;2024-03-02T04:29:39;50.13;;;19.48;;
80201;SDS011;69521;54.454;9.928;2024-03-02T04:32:05;52.87;;;19.80;;
80201;SDS011;69521;54.454;9.928;2024-03-02T04:34:30;52.45;;;19.52;;
80201;SDS011;69521;54.454;9.928;2024-03-02T04:36:56;47.13;;;19.47;;
80201;SDS011;69521;54.454;9.928;2024-03-02T04:39:21;53.17;;;20.83;;
80201;SDS011;69521;54.454;9.928;2024-03-02T04:41:46;54.25;;;20.70;;
80201;SDS011;69521;54.454;9.928;2024-03-02T04:44:12;56.90;;;20.13;;
80201;SDS011;69521;54.454;9.928;2024-03-02T04:46:38;58.58;;;21.50;;
80201;SDS011;69521;54.454;9.928;2024-03-02T04:49:03;59.00;;;21.80;;
80201;SDS011;69521;54.454;9.928;2024-03-02T04:51:28;61.23;;;21.23;;
80201;SDS011;69521;54.454;9.928;2024-03-02T04:53:54;51.60;;;20.45;;
80201;SDS011;69521;54.454;9.928;2024-03-02T04:56:19;49.58;;;20.70;;
80201;SDS011;69521;54.454;9.928;2024-03-02T04:59:03;50.42;;;19.48;;
80201;SDS011;69521;54.454;9.928;2024-03-02T05:01:29;53.73;;;18.77;;
80201;SDS011;69521;54.454;9.928;2024-03-02T05:03:54;48.15;;;18.83;;
80201;SDS011;69521;54.454;9.928;2024-03-02T05:06:20;62.58;;;24.67;;
80201;SDS011;69521;54.454;9.928;2024-03-02T05:08:45;65.38;;;22.55;;
80201;SDS011;69521;54.454;9.928;2024-03-02T05:11:10;57.05;;;21.95;;
80201;SDS011;69521;54.454;9.928;2024-03-02T05:14:04;61.10;;;21.38;;
80201;SDS011;69521;54.454;9.928;2024-03-02T05:16:34;58.03;;;21.23;;
80201;SDS011;69521;54.454;9.928;2024-03-02T05:19:00;54.95;;;21.48;;
80201;SDS011;69521;54.454;9.928;2024-03-02T05:21:25;55.85;;;21.52;;
80201;SDS011;69521;54.454;9.928;2024-03-02T05:23:51;62.42;;;23.88;;
80201;SDS011;69521;54.454;9.928;2024-03-02T05:26:16;62.00;;;22.45;;
80201;SDS011;69521;54.454;9.928;2024-03-02T05:28:42;58.80;;;22.17;;
80201;SDS011;69521;54.454;9.928;2024-03-02T05:31:10;64.38;;;21.90;;
80201;SDS011;69521;54.454;9.928;2024-03-02T05:33:39;58.25;;;21.92;;
80201;SDS011;69521;54.454;9.928;2024-03-02T05:36:05;49.58;;;20.10;;
80201;SDS011;69521;54.454;9.928;2024-03-02T05:38:31;49.90;;;19.67;;
80201;SDS011;69521;54.454;9.928;2024-03-02T05:40:57;50.60;;;21.17;;
80201;SDS011;69521;54.454;9.928;2024-03-02T05:43:22;55.00;;;20.30;;
80201;SDS011;69521;54.454;9.928;2024-03-02T05:45:47;49.65;;;20.02;;
80201;SDS011;69521;54.454;9.928;2024-03-02T05:48:13;60.37;;;22.30;;
80201;SDS011;69521;54.454;9.928;2024-03-02T05:50:38;61.17;;;21.27;;
80201;SDS011;69521;54.454;9.928;2024-03-02T05:53:03;61.67;;;21.80;;
80201;SDS011;69521;54.454;9.928;2024-03-02T05:55:29;53.63;;;21.38;;
80201;SDS011;69521;54.454;9.928;2024-03-02T05:57:54;59.53;;;23.17;;
80201;SDS011;69521;54.454;9.928;2024-03-02T06:00:25;60.25;;;23.30;;
80201;SDS011;69521;54.454;9.928;2024-03-02T06:02:50;60.40;;;20.70;;
80201;SDS011;69521;54.454;9.928;2024-03-02T06:05:16;57.33;;;21.83;;
80201;SDS011;69521;54.454;9.928;2024-03-02T06:07:43;52.17;;;21.45;;
80201;SDS011;69521;54.454;9.928;2024-03-02T06:10:08;63.60;;;24.17;;
80201;SDS011;69521;54.454;9.928;2024-03-02T06:12:34;62.38;;;22.55;;
80201;SDS011;69521;54.454;9.928;2024-03-02T06:14:59;57.45;;;21.73;;
80201;SDS011;69521;54.454;9.928;2024-03-02T06:17:26;65.47;;;23.48;;
80201;SDS011;69521;54.454;9.928;2024-03-02T06:19:51;58.33;;;22.83;;
80201;SDS011;69521;54.454;9.928;2024-03-02T06:22:17;61.25;;;22.83;;
80201;SDS011;69521;54.454;9.928;2024-03-02T06:24:44;61.50;;;23.58;;
80201;SDS011;69521;54.454;9.928;2024-03-02T06:27:09;65.22;;;22.67;;
80201;SDS011;69521;54.454;9.928;2024-03-02T06:29:34;59.13;;;22.70;;
80201;SDS011;69521;54.454;9.928;2024-03-02T06:32:00;61.22;;;22.63;;
80201;SDS011;69521;54.454;9.928;2024-03-02T06:34:25;61.60;;;23.77;;
80201;SDS011;69521;54.454;9.928;2024-03-02T06:36:50;57.75;;;22.15;;
80201;SDS011;69521;54.454;9.928;2024-03-02T06:39:16;61.33;;;23.35;;
80201;SDS011;69521;54.454;9.928;2024-03-02T06:41:41;62.47;;;24.55;;
80201;SDS011;69521;54.454;9.928;2024-03-02T06:44:12;58.47;;;23.65;;
80201;SDS011;69521;54.454;9.928;2024-03-02T06:46:37;61.38;;;24.60;;
80201;SDS011;69521;54.454;9.928;2024-03-02T06:49:02;60.27;;;23.80;;
80201;SDS011;69521;54.454;9.928;2024-03-02T06:51:29;60.75;;;24.25;;
80201;SDS011;69521;54.454;9.928;2024-03-02T06:53:54;59.63;;;22.65;;
80201;SDS011;69521;54.454;9.928;2024-03-02T06:56:20;58.25;;;23.10;;
80201;SDS011;69521;54.454;9.928;2024-03-02T06:58:45;60.03;;;22.25;;
80201;SDS011;69521;54.454;9.928;2024-03-02T07:01:11;61.03;;;23.83;;
80201;SDS011;69521;54.454;9.928;2024-03-02T07:03:36;59.65;;;23.65;;
80201;SDS011;69521;54.454;9.928;2024-03-02T07:06:01;51.33;;;21.97;;
80201;SDS011;69521;54.454;9.928;2024-03-02T07:08:28;58.53;;;22.73;;
80201;SDS011;69521;54.454;9.928;2024-03-02T07:10:53;54.50;;;20.90;;
80201;SDS011;69521;54.454;9.928;2024-03-02T07:13:18;58.63;;;22.63;;
80201;SDS011;69521;54.454;9.928;2024-03-02T07:15:43;59.63;;;22.88;;
80201;SDS011;69521;54.454;9.928;2024-03-02T07:18:35;57.03;;;21.25;;
80201;SDS011;69521;54.454;9.928;2024-03-02T07:21:05;45.65;;;21.38;;
80201;SDS011;69521;54.454;9.928;2024-03-02T07:23:31;60.22;;;23.10;;
80201;SDS011;69521;54.454;9.928;2024-03-02T07:25:57;53.95;;;22.00;;
80201;SDS011;69521;54.454;9.928;2024-03-02T07:28:24;48.22;;;20.25;;
80201;SDS011;69521;54.454;9.928;2024-03-02T07:31:00;51.50;;;21.02;;
80201;SDS011;69521;54.454;9.928;2024-03-02T07:33:26;51.80;;;20.50;;
80201;SDS011;69521;54.454;9.928;2024-03-02T07:35:52;43.72;;;19.80;;
80201;SDS011;69521;54.454;9.928;2024-03-02T07:38:22;43.03;;;18.67;;
80201;SDS011;69521;54.454;9.928;2024-03-02T07:40:48;42.83;;;19.30;;
80201;SDS011;69521;54.454;9.928;2024-03-02T07:43:18;49.72;;;20.00;;
80201;SDS011;69521;54.454;9.928;2024-03-02T07:45:47;41.92;;;17.02;;
80201;SDS011;69521;54.454;9.928;2024-03-02T07:48:13;45.22;;;19.50;;
80201;SDS011;69521;54.454;9.928;2024-03-02T07:50:39;45.35;;;19.83;;
80201;SDS011;69521;54.454;9.928;2024-03-02T07:53:04;43.40;;;18.40;;
80201;SDS011;69521;54.454;9.928;2024-03-02T07:55:30;40.10;;;17.67;;
80201;SDS011;69521;54.454;9.928;2024-03-02T07:57:58;42.85;;;18.30;;
80201;SDS011;69521;54.454;9.928;2024-03-02T08:02:50;35.47;;;16.13;;
80201;SDS011;69521;54.454;9.928;2024-03-02T08:05:17;39.92;;;17.00;;
80201;SDS011;69521;54.454;9.928;2024-03-02T08:07:46;39.25;;;17.00;;
80201;SDS011;69521;54.454;9.928;2024-03-02T08:10:12;36.22;;;16.90;;
80201;SDS011;69521;54.454;9.928;2024-03-02T08:12:38;32.40;;;15.82;;
80201;SDS011;69521;54.454;9.928;2024-03-02T08:15:03;38.55;;;15.23;;
80201;SDS011;69521;54.454;9.928;2024-03-02T08:17:29;32.83;;;16.40;;
80201;SDS011;69521;54.454;9.928;2024-03-02T08:19:55;31.95;;;16.08;;
80201;SDS011;69521;54.454;9.928;2024-03-02T08:22:20;36.28;;;15.45;;
80201;SDS011;69521;54.454;9.928;2024-03-02T08:24:46;26.33;;;13.93;;
80201;SDS011;69521;54.454;9.928;2024-03-02T08:27:11;25.65;;;14.60;;
80201;SDS011;69521;54.454;9.928;2024-03-02T08:29:37;27.35;;;13.65;;
80201;SDS011;69521;54.454;9.928;2024-03-02T08:32:03;30.02;;;14.25;;
80201;SDS011;69521;54.454;9.928;2024-03-02T08:34:29;28.10;;;13.35;;
80201;SDS011;69521;54.454;9.928;2024-03-02T08:36:54;25.83;;;13.77;;
80201;SDS011;69521;54.454;9.928;2024-03-02T08:39:19;29.92;;;14.55;;
80201;SDS011;69521;54.454;9.928;2024-03-02T08:41:45;28.95;;;15.15;;
80201;SDS011;69521;54.454;9.928;2024-03-02T08:44:11;34.20;;;15.85;;
80201;SDS011;69521;54.454;9.928;2024-03-02T08:46:38;29.45;;;14.93;;
80201;SDS011;69521;54.454;9.928;2024-03-02T08:49:04;29.08;;;14.63;;
80201;SDS011;69521;54.454;9.928;2024-03-02T08:51:29;30.33;;;13.80;;
80201;SDS011;69521;54.454;9.928;2024-03-02T08:53:54;24.45;;;12.63;;
80201;SDS011;69521;54.454;9.928;2024-03-02T08:56:20;30.65;;;13.95;;
80201;SDS011;69521;54.454;9.928;2024-03-02T08:58:46;26.20;;;13.95;;
80201;SDS011;69521;54.454;9.928;2024-03-02T09:01:12;26.33;;;12.90;;
80201;SDS011;69521;54.454;9.928;2024-03-02T09:03:37;27.92;;;13.35;;
80201;SDS011;69521;54.454;9.928;2024-03-02T09:06:03;24.05;;;12.73;;
80201;SDS011;69521;54.454;9.928;2024-03-02T09:08:28;26.10;;;13.18;;
80201;SDS011;69521;54.454;9.928;2024-03-02T09:10:54;23.42;;;12.60;;
80201;SDS011;69521;54.454;9.928;2024-03-02T09:13:20;25.23;;;13.32;;
80201;SDS011;69521;54.454;9.928;2024-03-02T09:15:47;25.73;;;12.95;;
80201;SDS011;69521;54.454;9.928;2024-03-02T09:18:12;24.60;;;13.25;;
80201;SDS011;69521;54.454;9.928;2024-03-02T09:20:38;23.50;;;13.32;;
80201;SDS011;69521;54.454;9.928;2024-03-02T09:23:03;25.30;;;12.98;;
80201;SDS011;69521;54.454;9.928;2024-03-02T09:25:29;23.45;;;13.20;;
80201;SDS011;69521;54.454;9.928;2024-03-02T09:27:54;26.47;;;13.03;;
80201;SDS011;69521;54.454;9.928;2024-03-02T09:30:19;25.20;;;12.05;;
80201;SDS011;69521;54.454;9.928;2024-03-02T09:32:45;30.08;;;12.70;;
80201;SDS011;69521;54.454;9.928;2024-03-02T09:35:10;26.75;;;12.95;;
80201;SDS011;69521;54.454;9.928;2024-03-02T09:37:37;24.38;;;13.35;;
80201;SDS011;69521;54.454;9.928;2024-03-02T09:40:02;25.48;;;12.82;;
80201;SDS011;69521;54.454;9.928;2024-03-02T09:42:28;21.85;;;12.13;;
80201;SDS011;69521;54.454;9.928;2024-03-02T09:44:54;26.60;;;13.05;;
80201;SDS011;69521;54.454;9.928;2024-03-02T09:47:20;22.48;;;12.20;;
80201;SDS011;69521;54.454;9.928;2024-03-02T09:49:45;22.75;;;12.25;;
80201;SDS011;69521;54.454;9.928;2024-03-02T09:52:10;24.80;;;12.18;;
80201;SDS011;69521;54.454;9.928;2024-03-02T09:54:36;24.45;;;11.18;;
80201;SDS011;69521;54.454;9.928;2024-03-02T09:57:02;23.00;;;10.23;;
80201;SDS011;69521;54.454;9.928;2024-03-02T09:59:27;18.92;;;10.40;;
80201;SDS011;69521;54.454;9.928;2024-03-02T10:02:00;21.70;;;11.57;;
80201;SDS011;69521;54.454;9.928;2024-03-02T10:04:27;18.38;;;10.13;;
80201;SDS011;69521;54.454;9.928;2024-03-02T10:09:36;17.15;;;9.77;;
80201;SDS011;69521;54.454;9.928;2024-03-02T10:12:04;19.58;;;10.10;;
80201;SDS011;69521;54.454;9.928;2024-03-02T10:17:02;13.68;;;8.00;;
80201;SDS011;69521;54.454;9.928;2024-03-02T10:19:31;21.02;;;10.68;;
80201;SDS011;69521;54.454;9.928;2024-03-02T10:21:59;16.85;;;9.13;;
80201;SDS011;69521;54.454;9.928;2024-03-02T10:24:44;19.15;;;9.18;;
80201;SDS011;69521;54.454;9.928;2024-03-02T10:27:10;15.80;;;9.10;;
80201;SDS011;69521;54.454;9.928;2024-03-02T10:29:41;15.93;;;8.80;;
80201;SDS011;69521;54.454;9.928;2024-03-02T10:32:09;16.23;;;9.85;;
80201;SDS011;69521;54.454;9.928;2024-03-02T10:34:36;16.55;;;9.05;;
80201;SDS011;69521;54.454;9.928;2024-03-02T10:37:02;18.58;;;9.30;;
80201;SDS011;69521;54.454;9.928;2024-03-02T10:39:28;16.50;;;9.65;;
80201;SDS011;69521;54.454;9.928;2024-03-02T10:41:54;19.63;;;10.18;;
80201;SDS011;69521;54.454;9.928;2024-03-02T10:44:21;15.15;;;8.85;;
80201;SDS011;69521;54.454;9.928;2024-03-02T10:46:47;15.85;;;9.70;;
80201;SDS011;69521;54.454;9.928;2024-03-02T10:49:15;13.15;;;9.05;;
80201;SDS011;69521;54.454;9.928;2024-03-02T10:51:42;15.65;;;8.98;;
80201;SDS011;69521;54.454;9.928;2024-03-02T10:54:07;17.55;;;9.95;;
80201;SDS011;69521;54.454;9.928;2024-03-02T10:56:33;15.35;;;8.85;;
80201;SDS011;69521;54.454;9.928;2024-03-02T11:01:50;14.82;;;9.02;;
80201;SDS011;69521;54.454;9.928;2024-03-02T11:04:21;15.82;;;8.82;;
80201;SDS011;69521;54.454;9.928;2024-03-02T11:06:49;16.15;;;9.38;;
80201;SDS011;69521;54.454;9.928;2024-03-02T11:09:16;13.50;;;8.20;;
80201;SDS011;69521;54.454;9.928;2024-03-02T11:11:45;14.52;;;8.70;;
80201;SDS011;69521;54.454;9.928;2024-03-02T11:14:17;14.27;;;8.45;;
80201;SDS011;69521;54.454;9.928;2024-03-02T11:16:49;17.27;;;8.85;;
80201;SDS011;69521;54.454;9.928;2024-03-02T11:19:15;16.73;;;9.63;;
80201;SDS011;69521;54.454;9.928;2024-03-02T11:21:41;18.58;;;8.95;;
80201;SDS011;69521;54.454;9.928;2024-03-02T11:26:49;17.60;;;7.90;;
80201;SDS011;69521;54.454;9.928;2024-03-02T11:32:00;14.35;;;8.23;;
80201;SDS011;69521;54.454;9.928;2024-03-02T11:37:02;12.57;;;8.40;;
80201;SDS011;69521;54.454;9.928;2024-03-02T11:39:29;14.80;;;8.10;;
80201;SDS011;69521;54.454;9.928;2024-03-02T11:41:55;12.50;;;7.65;;
80201;SDS011;69521;54.454;9.928;2024-03-02T11:44:22;13.57;;;8.30;;
80201;SDS011;69521;54.454;9.928;2024-03-02T11:46:53;19.08;;;8.20;;
80201;SDS011;69521;54.454;9.928;2024-03-02T11:52:24;16.70;;;9.25;;
80201;SDS011;69521;54.454;9.928;2024-03-02T11:54:51;15.07;;;8.75;;
80201;SDS011;69521;54.454;9.928;2024-03-02T11:57:19;15.43;;;8.98;;
80201;SDS011;69521;54.454;9.928;2024-03-02T11:59:47;16.92;;;9.38;;
80201;SDS011;69521;54.454;9.928;2024-03-02T12:02:18;20.25;;;9.40;;
80201;SDS011;69521;54.454;9.928;2024-03-02T12:04:44;16.52;;;9.15;;
80201;SDS011;69521;54.454;9.928;2024-03-02T12:07:10;16.95;;;9.43;;
80201;SDS011;69521;54.454;9.928;2024-03-02T12:09:37;15.50;;;8.63;;
80201;SDS011;69521;54.454;9.928;2024-03-02T12:12:03;15.45;;;9.45;;
80201;SDS011;69521;54.454;9.928;2024-03-02T12:14:30;17.15;;;9.30;;
80201;SDS011;69521;54.454;9.928;2024-03-02T12:16:57;17.88;;;10.23;;
80201;SDS011;69521;54.454;9.928;2024-03-02T12:19:23;18.75;;;9.32;;
80201;SDS011;69521;54.454;9.928;2024-03-02T12:21:49;17.10;;;9.02;;
80201;SDS011;69521;54.454;9.928;2024-03-02T12:24:15;17.08;;;9.70;;
80201;SDS011;69521;54.454;9.928;2024-03-02T12:26:40;18.73;;;9.38;;
80201;SDS011;69521;54.454;9.928;2024-03-02T12:29:06;18.42;;;9.88;;
80201;SDS011;69521;54.454;9.928;2024-03-02T12:31:32;15.63;;;8.75;;
80201;SDS011;69521;54.454;9.928;2024-03-02T12:33:57;16.65;;;9.32;;
80201;SDS011;69521;54.454;9.928;2024-03-02T12:36:23;18.77;;;9.75;;
80201;SDS011;69521;54.454;9.928;2024-03-02T12:38:52;18.27;;;9.63;;
80201;SDS011;69521;54.454;9.928;2024-03-02T12:41:18;20.13;;;9.75;;
80201;SDS011;69521;54.454;9.928;2024-03-02T12:43:43;19.05;;;9.27;;
80201;SDS011;69521;54.454;9.928;2024-03-02T12:46:08;16.25;;;9.63;;
80201;SDS011;69521;54.454;9.928;2024-03-02T12:48:34;15.90;;;8.88;;
80201;SDS011;69521;54.454;9.928;2024-03-02T12:51:01;19.52;;;9.52;;
80201;SDS011;69521;54.454;9.928;2024-03-02T12:53:26;18.10;;;9.48;;
80201;SDS011;69521;54.454;9.928;2024-03-02T12:55:52;18.98;;;9.30;;
80201;SDS011;69521;54.454;9.928;2024-03-02T12:58:21;16.33;;;9.40;;
80201;SDS011;69521;54.454;9.928;2024-03-02T13:00:47;18.15;;;9.05;;
80201;SDS011;69521;54.454;9.928;2024-03-02T13:03:13;18.98;;;9.45;;
80201;SDS011;69521;54.454;9.928;2024-03-02T13:05:39;18.77;;;9.60;;
80201;SDS011;69521;54.454;9.928;2024-03-02T13:08:04;18.98;;;9.48;;
80201;SDS011;69521;54.454;9.928;2024-03-02T13:10:32;20.05;;;9.40;;
80201;SDS011;69521;54.454;9.928;2024-03-02T13:12:57;16.75;;;9.25;;
80201;SDS011;69521;54.454;9.928;2024-03-02T13:15:23;18.75;;;9.63;;
80201;SDS011;69521;54.454;9.928;2024-03-02T13:17:49;17.80;;;10.02;;
80201;SDS011;69521;54.454;9.928;2024-03-02T13:20:15;19.17;;;9.95;;
80201;SDS011;69521;54.454;9.928;2024-03-02T13:22:43;18.10;;;9.48;;
80201;SDS011;69521;54.454;9.928;2024-03-02T13:25:08;18.95;;;9.63;;
80201;SDS011;69521;54.454;9.928;2024-03-02T13:27:35;17.10;;;9.13;;
80201;SDS011;69521;54.454;9.928;2024-03-02T13:30:01;18.08;;;9.38;;
80201;SDS011;69521;54.454;9.928;2024-03-02T13:32:27;16.25;;;9.20;;
80201;SDS011;69521;54.454;9.928;2024-03-02T13:34:53;17.42;;;8.63;;
80201;SDS011;69521;54.454;9.928;2024-03-02T13:37:19;20.70;;;9.82;;
80201;SDS011;69521;54.454;9.928;2024-03-02T13:39:45;16.73;;;9.00;;
80201;SDS011;69521;54.454;9.928;2024-03-02T13:42:10;16.92;;;9.35;;
80201;SDS011;69521;54.454;9.928;2024-03-02T13:44:38;16.92;;;9.43;;
80201;SDS011;69521;54.454;9.928;2024-03-02T13:47:04;19.15;;;10.20;;
80201;SDS011;69521;54.454;9.928;2024-03-02T13:49:30;18.67;;;9.18;;
80201;SDS011;69521;54.454;9.928;2024-03-02T13:52:00;16.67;;;8.50;;
80201;SDS011;69521;54.454;9.928;2024-03-02T13:54:28;20.05;;;9.20;;
80201;SDS011;69521;54.454;9.928;2024-03-02T13:56:54;19.60;;;9.55;;
80201;SDS011;69521;54.454;9.928;2024-03-02T13:59:19;19.17;;;8.27;;
80201;SDS011;69521;54.454;9.928;2024-03-02T14:01:47;15.65;;;8.30;;
80201;SDS011;69521;54.454;9.928;2024-03-02T14:04:12;14.15;;;8.13;;
80201;SDS011;69521;54.454;9.928;2024-03-02T14:06:38;13.55;;;8.50;;
80201;SDS011;69521;54.454;9.928;2024-03-02T14:09:03;14.75;;;7.65;;
80201;SDS011;69521;54.454;9.928;2024-03-02T14:11:28;15.38;;;8.77;;
80201;SDS011;69521;54.454;9.928;2024-03-02T14:13:53;17.23;;;8.03;;
80201;SDS011;69521;54.454;9.928;2024-03-02T14:16:19;16.50;;;8.75;;
80201;SDS011;69521;54.454;9.928;2024-03-02T14:18:45;17.33;;;8.75;;
80201;SDS011;69521;54.454;9.928;2024-03-02T14:21:11;18.13;;;8.70;;
80201;SDS011;69521;54.454;9.928;2024-03-02T14:23:36;16.95;;;8.13;;
80201;SDS011;69521;54.454;9.928;2024-03-02T14:26:02;17.65;;;9.15;;
80201;SDS011;69521;54.454;9.928;2024-03-02T14:28:27;14.45;;;7.93;;
80201;SDS011;69521;54.454;9.928;2024-03-02T14:30:53;16.25;;;9.10;;
80201;SDS011;69521;54.454;9.928;2024-03-02T14:33:18;18.48;;;9.15;;
80201;SDS011;69521;54.454;9.928;2024-03-02T14:35:44;16.35;;;9.40;;
80201;SDS011;69521;54.454;9.928;2024-03-02T14:38:10;16.63;;;9.00;;
80201;SDS011;69521;54.454;9.928;2024-03-02T14:40:36;20.70;;;10.05;;
80201;SDS011;69521;54.454;9.928;2024-03-02T14:43:01;25.07;;;11.63;;
80201;SDS011;69521;54.454;9.928;2024-03-02T14:45:27;16.33;;;8.82;;